Hamburg Airport, Germany

4:53 AM CEST on August 30, 2015 (GMT +0200)
Hamburg | | Change Station
CLOSE
Current Station
Airport
Location: Hamburg Airport,
Elevation: 52 ft
Nearby Weather Stations

Elev 52 ft 53.63 °N, 9.99 °E | Updated 33 minutes ago

Shallow Fog
Shallow Fog
55 °F
Feels Like 55 °F
N
4
Wind Variable Wind from ENE

Today
High -- | Low -- °F
--% Chance of Precip.
Yesterday
High -- | Low -- °F
Precip. -- in
6:24 AM 8:15 PM
Full, 100% visible
Pressure 30.12 in
Visibility 6.2 miles
Clouds Scattered Clouds 4600 ft
Scattered Clouds 25000 ft
Dew Point 54 °F
Humidity 94%
Rainfall 0.00 in
Snow Depth Not available.
UV 0 out of 12
Pollen Not available.
Air Quality Not available.
Flu Activity Not available.
METAR EDDH 300220Z 07003KT 9999 MIFG SCT046 SCT250 13/12 Q1020 NOSIG
Pressure 30.12 in
Visibility 6.2 miles
Clouds Scattered Clouds 4600 ft
Scattered Clouds 25000 ft
Dew Point 54 °F
Humidity 94%
Rainfall 0.00 in
Snow Depth Not available.
UV 0 out of 12
Pollen Not available.
Air Quality Not available.
Flu Activity Not available.
METAR EDDH 300220Z 07003KT 9999 MIFG SCT046 SCT250 13/12 Q1020 NOSIG

10-Day Weather Forecast

×

Almanac

Astronomy

Aug. 30, 2015 Rise Set
Actual Time
Civil Twilight
Nautical Twilight
Astronomical Twilight
Moon
Length of Visible Light
Length of Day
Tomorrow will be .
, % of the Moon is Illuminated

Today's Extremes

Country Highs Country Lows

Community

WunderPhotos

Upload Photos

1,850,855 photos uploaded!

WunderBlogs® & News

Nearby

Air Quality

  Air Quality AQ Index Pollutant
Not available.

Snow Depth

Station Depth Elevation

Earthquake Activity

City Distance Mag. Time & Date
Minimum magnitude displayed is 2.5.

Coastal Water Temperatures

Place Temperature

Stations

Nearby Weather Stations

Station Location Temp. Windchill Dew Point Humidity Wind Precip. Elev Updated Type